sensor_id;sensor_type;location;lat;lon;timestamp;pressure;altitude;pressure_sealevel;temperature;humidity
72134;BME280;60011;51.518;-3.188;2022-08-21T00:01:47;101181.86;;;24.17;49.22
72134;BME280;60011;51.518;-3.188;2022-08-21T00:04:13;101178.41;;;24.16;49.25
72134;BME280;60011;51.518;-3.188;2022-08-21T00:06:39;101177.42;;;24.14;49.32
72134;BME280;60011;51.518;-3.188;2022-08-21T00:09:06;101172.59;;;24.14;49.38
72134;BME280;60011;51.518;-3.188;2022-08-21T00:11:29;101170.87;;;24.12;49.40
72134;BME280;60011;51.518;-3.188;2022-08-21T00:13:54;101171.44;;;24.11;49.44
72134;BME280;60011;51.518;-3.188;2022-08-21T00:16:19;101173.33;;;24.16;49.36
72134;BME280;60011;51.518;-3.188;2022-08-21T00:18:45;101170.16;;;24.13;49.38
72134;BME280;60011;51.518;-3.188;2022-08-21T00:21:11;101168.50;;;24.13;49.38
72134;BME280;60011;51.518;-3.188;2022-08-21T00:23:35;101166.53;;;24.15;49.36
72134;BME280;60011;51.518;-3.188;2022-08-21T00:26:00;101162.38;;;24.12;49.40
72134;BME280;60011;51.518;-3.188;2022-08-21T00:28:26;101160.97;;;24.13;49.36
72134;BME280;60011;51.518;-3.188;2022-08-21T00:30:51;101159.82;;;24.13;49.34
72134;BME280;60011;51.518;-3.188;2022-08-21T00:33:16;101155.43;;;24.13;49.49
72134;BME280;60011;51.518;-3.188;2022-08-21T00:35:42;101157.95;;;24.10;49.59
72134;BME280;60011;51.518;-3.188;2022-08-21T00:38:08;101161.00;;;24.12;49.57
72134;BME280;60011;51.518;-3.188;2022-08-21T00:40:35;101158.24;;;24.15;49.45
72134;BME280;60011;51.518;-3.188;2022-08-21T00:42:58;101159.51;;;24.11;49.57
72134;BME280;60011;51.518;-3.188;2022-08-21T00:45:24;101163.49;;;24.16;49.45
72134;BME280;60011;51.518;-3.188;2022-08-21T00:47:50;101165.93;;;24.13;49.51
72134;BME280;60011;51.518;-3.188;2022-08-21T00:50:14;101162.91;;;24.15;49.46
72134;BME280;60011;51.518;-3.188;2022-08-21T00:52:39;101160.91;;;24.16;49.48
72134;BME280;60011;51.518;-3.188;2022-08-21T00:55:07;101161.90;;;24.12;49.58
72134;BME280;60011;51.518;-3.188;2022-08-21T00:57:33;101162.37;;;24.15;49.50
72134;BME280;60011;51.518;-3.188;2022-08-21T00:59:57;101157.86;;;24.11;49.59
72134;BME280;60011;51.518;-3.188;2022-08-21T01:02:20;101155.72;;;24.11;49.59
72134;BME280;60011;51.518;-3.188;2022-08-21T01:04:46;101156.02;;;24.08;49.66
72134;BME280;60011;51.518;-3.188;2022-08-21T01:07:11;101162.62;;;24.08;49.71
72134;BME280;60011;51.518;-3.188;2022-08-21T01:09:36;101165.65;;;24.08;49.68
72134;BME280;60011;51.518;-3.188;2022-08-21T01:12:02;101167.44;;;24.05;49.78
72134;BME280;60011;51.518;-3.188;2022-08-21T01:14:27;101159.27;;;24.09;49.74
72134;BME280;60011;51.518;-3.188;2022-08-21T01:16:52;101155.94;;;24.08;49.73
72134;BME280;60011;51.518;-3.188;2022-08-21T01:19:18;101150.18;;;24.04;49.85
72134;BME280;60011;51.518;-3.188;2022-08-21T01:21:43;101153.40;;;24.06;49.81
72134;BME280;60011;51.518;-3.188;2022-08-21T01:24:08;101153.13;;;24.05;49.86
72134;BME280;60011;51.518;-3.188;2022-08-21T01:26:34;101152.61;;;24.03;49.96
72134;BME280;60011;51.518;-3.188;2022-08-21T01:29:01;101154.98;;;24.06;49.85
72134;BME280;60011;51.518;-3.188;2022-08-21T01:31:26;101148.41;;;24.05;49.92
72134;BME280;60011;51.518;-3.188;2022-08-21T01:33:49;101149.37;;;24.09;49.79
72134;BME280;60011;51.518;-3.188;2022-08-21T01:36:14;101142.41;;;24.05;49.88
72134;BME280;60011;51.518;-3.188;2022-08-21T01:38:39;101141.89;;;24.03;49.96
72134;BME280;60011;51.518;-3.188;2022-08-21T01:41:04;101143.81;;;24.08;49.79
72134;BME280;60011;51.518;-3.188;2022-08-21T01:43:30;101142.17;;;24.02;49.98
72134;BME280;60011;51.518;-3.188;2022-08-21T01:45:55;101141.20;;;24.01;49.98
72134;BME280;60011;51.518;-3.188;2022-08-21T01:48:20;101143.17;;;23.99;50.05
72134;BME280;60011;51.518;-3.188;2022-08-21T01:50:45;101141.77;;;24.04;49.95
72134;BME280;60011;51.518;-3.188;2022-08-21T01:53:11;101140.10;;;24.03;49.95
72134;BME280;60011;51.518;-3.188;2022-08-21T01:55:36;101141.52;;;24.01;50.02
72134;BME280;60011;51.518;-3.188;2022-08-21T01:58:01;101141.50;;;24.01;49.98
72134;BME280;60011;51.518;-3.188;2022-08-21T02:00:27;101142.48;;;24.00;50.05
72134;BME280;60011;51.518;-3.188;2022-08-21T02:02:52;101145.55;;;24.00;50.01
72134;BME280;60011;51.518;-3.188;2022-08-21T02:05:17;101146.88;;;24.02;49.96
72134;BME280;60011;51.518;-3.188;2022-08-21T02:07:44;101144.99;;;23.99;50.08
72134;BME280;60011;51.518;-3.188;2022-08-21T02:10:10;101143.68;;;24.00;50.04
72134;BME280;60011;51.518;-3.188;2022-08-21T02:12:33;101143.70;;;23.99;50.04
72134;BME280;60011;51.518;-3.188;2022-08-21T02:14:58;101143.99;;;23.99;50.00
72134;BME280;60011;51.518;-3.188;2022-08-21T02:17:23;101142.61;;;24.00;49.97
72134;BME280;60011;51.518;-3.188;2022-08-21T02:19:49;101147.95;;;24.00;50.01
72134;BME280;60011;51.518;-3.188;2022-08-21T02:22:14;101147.38;;;24.00;49.98
72134;BME280;60011;51.518;-3.188;2022-08-21T02:24:39;101146.59;;;23.96;50.07
72134;BME280;60011;51.518;-3.188;2022-08-21T02:27:04;101146.77;;;23.96;50.08
72134;BME280;60011;51.518;-3.188;2022-08-21T02:29:30;101152.20;;;23.95;50.07
72134;BME280;60011;51.518;-3.188;2022-08-21T02:31:55;101145.52;;;23.96;50.09
72134;BME280;60011;51.518;-3.188;2022-08-21T02:34:20;101141.35;;;23.92;50.25
72134;BME280;60011;51.518;-3.188;2022-08-21T02:36:45;101140.22;;;23.94;50.14
72134;BME280;60011;51.518;-3.188;2022-08-21T02:39:11;101138.28;;;23.96;50.11
72134;BME280;60011;51.518;-3.188;2022-08-21T02:41:36;101129.76;;;23.94;50.16
72134;BME280;60011;51.518;-3.188;2022-08-21T02:44:01;101130.93;;;23.95;50.10
72134;BME280;60011;51.518;-3.188;2022-08-21T02:46:26;101126.22;;;23.94;50.13
72134;BME280;60011;51.518;-3.188;2022-08-21T02:48:52;101123.29;;;23.94;50.10
72134;BME280;60011;51.518;-3.188;2022-08-21T02:51:19;101122.81;;;23.97;50.02
72134;BME280;60011;51.518;-3.188;2022-08-21T02:53:43;101122.86;;;23.93;50.16
72134;BME280;60011;51.518;-3.188;2022-08-21T02:56:12;101118.27;;;23.92;50.15
72134;BME280;60011;51.518;-3.188;2022-08-21T02:58:35;101111.42;;;23.93;50.13
72134;BME280;60011;51.518;-3.188;2022-08-21T03:00:58;101108.48;;;23.92;50.13
72134;BME280;60011;51.518;-3.188;2022-08-21T03:03:24;101112.67;;;23.89;50.19
72134;BME280;60011;51.518;-3.188;2022-08-21T03:05:49;101111.37;;;23.91;50.16
72134;BME280;60011;51.518;-3.188;2022-08-21T03:08:15;101114.43;;;23.91;50.16
72134;BME280;60011;51.518;-3.188;2022-08-21T03:10:42;101115.57;;;23.89;50.20
72134;BME280;60011;51.518;-3.188;2022-08-21T03:13:04;101114.14;;;23.91;50.14
72134;BME280;60011;51.518;-3.188;2022-08-21T03:15:30;101106.36;;;23.89;50.22
72134;BME280;60011;51.518;-3.188;2022-08-21T03:17:55;101107.43;;;23.91;50.14
72134;BME280;60011;51.518;-3.188;2022-08-21T03:20:23;101110.68;;;23.94;50.05
72134;BME280;60011;51.518;-3.188;2022-08-21T03:22:46;101104.64;;;23.92;50.07
72134;BME280;60011;51.518;-3.188;2022-08-21T03:25:11;101100.54;;;23.87;50.21
72134;BME280;60011;51.518;-3.188;2022-08-21T03:27:37;101098.79;;;23.89;50.13
72134;BME280;60011;51.518;-3.188;2022-08-21T03:30:03;101097.14;;;23.88;50.13
72134;BME280;60011;51.518;-3.188;2022-08-21T03:32:27;101095.11;;;23.89;50.16
72134;BME280;60011;51.518;-3.188;2022-08-21T03:34:52;101090.76;;;23.89;50.12
72134;BME280;60011;51.518;-3.188;2022-08-21T03:37:17;101086.62;;;23.86;50.17
72134;BME280;60011;51.518;-3.188;2022-08-21T03:39:43;101091.16;;;23.91;50.07
72134;BME280;60011;51.518;-3.188;2022-08-21T03:42:08;101090.80;;;23.89;50.07
72134;BME280;60011;51.518;-3.188;2022-08-21T03:44:33;101096.16;;;23.88;50.10
72134;BME280;60011;51.518;-3.188;2022-08-21T03:46:58;101096.71;;;23.88;50.10
72134;BME280;60011;51.518;-3.188;2022-08-21T03:49:24;101100.53;;;23.88;50.10
72134;BME280;60011;51.518;-3.188;2022-08-21T03:51:49;101104.29;;;23.87;50.09
72134;BME280;60011;51.518;-3.188;2022-08-21T03:54:14;101105.50;;;23.88;50.12
72134;BME280;60011;51.518;-3.188;2022-08-21T03:56:40;101102.94;;;23.86;50.15
72134;BME280;60011;51.518;-3.188;2022-08-21T03:59:05;101105.64;;;23.85;50.13
72134;BME280;60011;51.518;-3.188;2022-08-21T04:01:31;101104.86;;;23.85;50.16
72134;BME280;60011;51.518;-3.188;2022-08-21T04:03:55;101103.32;;;23.90;50.02
72134;BME280;60011;51.518;-3.188;2022-08-21T04:06:21;101102.55;;;23.85;50.11
72134;BME280;60011;51.518;-3.188;2022-08-21T04:08:46;101101.52;;;23.83;50.18
72134;BME280;60011;51.518;-3.188;2022-08-21T04:11:11;101106.58;;;23.84;50.15
72134;BME280;60011;51.518;-3.188;2022-08-21T04:13:37;101117.13;;;23.84;50.15
72134;BME280;60011;51.518;-3.188;2022-08-21T04:16:02;101117.56;;;23.82;50.19
72134;BME280;60011;51.518;-3.188;2022-08-21T04:18:27;101118.73;;;23.85;50.13
72134;BME280;60011;51.518;-3.188;2022-08-21T04:20:53;101123.81;;;23.86;50.11
72134;BME280;60011;51.518;-3.188;2022-08-21T04:23:18;101130.82;;;23.86;50.09
72134;BME280;60011;51.518;-3.188;2022-08-21T04:25:43;101137.29;;;23.84;50.14
72134;BME280;60011;51.518;-3.188;2022-08-21T04:28:08;101139.47;;;23.84;50.11
72134;BME280;60011;51.518;-3.188;2022-08-21T04:30:33;101142.88;;;23.81;50.21
72134;BME280;60011;51.518;-3.188;2022-08-21T04:32:59;101143.73;;;23.80;50.25
72134;BME280;60011;51.518;-3.188;2022-08-21T04:35:26;101147.30;;;23.81;50.24
72134;BME280;60011;51.518;-3.188;2022-08-21T04:37:49;101150.40;;;23.80;50.25
72134;BME280;60011;51.518;-3.188;2022-08-21T04:40:16;101142.57;;;23.81;50.22
72134;BME280;60011;51.518;-3.188;2022-08-21T04:42:42;101134.13;;;23.82;50.17
72134;BME280;60011;51.518;-3.188;2022-08-21T04:45:06;101121.86;;;23.82;50.18
72134;BME280;60011;51.518;-3.188;2022-08-21T04:47:30;101123.02;;;23.80;50.21
72134;BME280;60011;51.518;-3.188;2022-08-21T04:49:56;101126.76;;;23.82;50.16
72134;BME280;60011;51.518;-3.188;2022-08-21T04:52:22;101116.23;;;23.81;50.18
72134;BME280;60011;51.518;-3.188;2022-08-21T04:54:48;101112.84;;;23.80;50.19
72134;BME280;60011;51.518;-3.188;2022-08-21T04:57:13;101118.34;;;23.78;50.27
72134;BME280;60011;51.518;-3.188;2022-08-21T04:59:40;101114.88;;;23.80;50.29
72134;BME280;60011;51.518;-3.188;2022-08-21T05:02:03;101108.83;;;23.78;50.32
72134;BME280;60011;51.518;-3.188;2022-08-21T05:04:30;101109.82;;;23.79;50.33
72134;BME280;60011;51.518;-3.188;2022-08-21T05:06:54;101118.91;;;23.79;50.36
72134;BME280;60011;51.518;-3.188;2022-08-21T05:09:19;101130.12;;;23.78;50.41
72134;BME280;60011;51.518;-3.188;2022-08-21T05:11:44;101135.59;;;23.76;50.45
72134;BME280;60011;51.518;-3.188;2022-08-21T05:14:09;101142.86;;;23.75;50.50
72134;BME280;60011;51.518;-3.188;2022-08-21T05:16:34;101147.01;;;23.75;50.48
72134;BME280;60011;51.518;-3.188;2022-08-21T05:18:59;101151.83;;;23.76;50.49
72134;BME280;60011;51.518;-3.188;2022-08-21T05:21:25;101151.62;;;23.75;50.45
72134;BME280;60011;51.518;-3.188;2022-08-21T05:23:50;101151.62;;;23.73;50.52
72134;BME280;60011;51.518;-3.188;2022-08-21T05:26:15;101145.48;;;23.72;50.54
72134;BME280;60011;51.518;-3.188;2022-08-21T05:28:40;101148.52;;;23.77;50.40
72134;BME280;60011;51.518;-3.188;2022-08-21T05:31:06;101146.75;;;23.74;50.50
72134;BME280;60011;51.518;-3.188;2022-08-21T05:33:31;101147.09;;;23.72;50.49
72134;BME280;60011;51.518;-3.188;2022-08-21T05:35:57;101141.22;;;23.75;50.44
72134;BME280;60011;51.518;-3.188;2022-08-21T05:38:23;101140.94;;;23.74;50.42
72134;BME280;60011;51.518;-3.188;2022-08-21T05:40:47;101136.70;;;23.75;50.44
72134;BME280;60011;51.518;-3.188;2022-08-21T05:43:13;101129.28;;;23.72;50.49
72134;BME280;60011;51.518;-3.188;2022-08-21T05:45:38;101125.89;;;23.72;50.47
72134;BME280;60011;51.518;-3.188;2022-08-21T05:48:06;101125.21;;;23.70;50.54
72134;BME280;60011;51.518;-3.188;2022-08-21T05:50:28;101125.04;;;23.72;50.44
72134;BME280;60011;51.518;-3.188;2022-08-21T05:52:53;101125.22;;;23.70;50.45
72134;BME280;60011;51.518;-3.188;2022-08-21T05:55:19;101129.71;;;23.75;50.35
72134;BME280;60011;51.518;-3.188;2022-08-21T05:57:44;101130.25;;;23.72;50.46
72134;BME280;60011;51.518;-3.188;2022-08-21T06:00:10;101131.74;;;23.72;50.45
72134;BME280;60011;51.518;-3.188;2022-08-21T06:02:34;101134.30;;;23.74;50.38
72134;BME280;60011;51.518;-3.188;2022-08-21T06:05:00;101137.11;;;23.69;50.45
72134;BME280;60011;51.518;-3.188;2022-08-21T06:07:25;101138.00;;;23.72;50.50
72134;BME280;60011;51.518;-3.188;2022-08-21T06:09:50;101136.19;;;23.68;50.56
72134;BME280;60011;51.518;-3.188;2022-08-21T06:12:15;101138.44;;;23.68;50.61
72134;BME280;60011;51.518;-3.188;2022-08-21T06:14:41;101138.84;;;23.68;50.61
72134;BME280;60011;51.518;-3.188;2022-08-21T06:17:08;101137.14;;;23.64;50.75
72134;BME280;60011;51.518;-3.188;2022-08-21T06:19:31;101143.72;;;23.66;50.66
72134;BME280;60011;51.518;-3.188;2022-08-21T06:21:56;101146.62;;;23.67;50.64
72134;BME280;60011;51.518;-3.188;2022-08-21T06:24:22;101143.60;;;23.69;50.68
72134;BME280;60011;51.518;-3.188;2022-08-21T06:26:47;101140.78;;;23.64;50.73
72134;BME280;60011;51.518;-3.188;2022-08-21T06:29:13;101139.18;;;23.63;50.72
72134;BME280;60011;51.518;-3.188;2022-08-21T06:31:39;101139.94;;;23.63;50.76
72134;BME280;60011;51.518;-3.188;2022-08-21T06:34:03;101137.26;;;23.62;50.77
72134;BME280;60011;51.518;-3.188;2022-08-21T06:36:28;101129.75;;;23.60;50.79
72134;BME280;60011;51.518;-3.188;2022-08-21T06:38:53;101132.31;;;23.64;50.72
72134;BME280;60011;51.518;-3.188;2022-08-21T06:41:19;101136.29;;;23.69;50.58
72134;BME280;60011;51.518;-3.188;2022-08-21T06:43:45;101136.53;;;23.70;50.56
72134;BME280;60011;51.518;-3.188;2022-08-21T06:46:10;101135.40;;;23.64;50.70
72134;BME280;60011;51.518;-3.188;2022-08-21T06:48:35;101137.08;;;23.62;50.76
72134;BME280;60011;51.518;-3.188;2022-08-21T06:51:00;101133.81;;;23.60;50.79
72134;BME280;60011;51.518;-3.188;2022-08-21T06:53:26;101135.38;;;23.59;50.80
72134;BME280;60011;51.518;-3.188;2022-08-21T06:55:51;101141.36;;;23.61;50.74
72134;BME280;60011;51.518;-3.188;2022-08-21T06:58:16;101141.87;;;23.60;50.77
72134;BME280;60011;51.518;-3.188;2022-08-21T07:00:43;101140.82;;;23.59;50.81
72134;BME280;60011;51.518;-3.188;2022-08-21T07:03:07;101134.51;;;23.59;50.77
72134;BME280;60011;51.518;-3.188;2022-08-21T07:05:32;101136.07;;;23.66;50.57
72134;BME280;60011;51.518;-3.188;2022-08-21T07:07:57;101136.25;;;23.61;50.83
72134;BME280;60011;51.518;-3.188;2022-08-21T07:10:23;101142.61;;;23.65;50.83
72134;BME280;60011;51.518;-3.188;2022-08-21T07:12:48;101154.44;;;23.70;50.80
72134;BME280;60011;51.518;-3.188;2022-08-21T07:15:13;101157.92;;;23.68;50.88
72134;BME280;60011;51.518;-3.188;2022-08-21T07:17:38;101159.88;;;23.74;50.85
72134;BME280;60011;51.518;-3.188;2022-08-21T07:20:04;101163.01;;;23.74;50.96
72134;BME280;60011;51.518;-3.188;2022-08-21T07:22:29;101165.02;;;23.76;50.94
72134;BME280;60011;51.518;-3.188;2022-08-21T07:24:54;101164.21;;;23.75;51.00
72134;BME280;60011;51.518;-3.188;2022-08-21T07:27:19;101168.60;;;23.78;51.11
72134;BME280;60011;51.518;-3.188;2022-08-21T07:29:44;101173.21;;;23.79;50.93
72134;BME280;60011;51.518;-3.188;2022-08-21T07:32:09;101178.22;;;23.81;50.96
72134;BME280;60011;51.518;-3.188;2022-08-21T07:34:35;101179.17;;;23.81;51.03
72134;BME280;60011;51.518;-3.188;2022-08-21T07:37:01;101188.55;;;23.83;51.03
72134;BME280;60011;51.518;-3.188;2022-08-21T07:39:26;101190.36;;;23.83;50.92
72134;BME280;60011;51.518;-3.188;2022-08-21T07:41:51;101187.66;;;23.85;50.89
72134;BME280;60011;51.518;-3.188;2022-08-21T07:44:17;101187.75;;;23.80;50.96
72134;BME280;60011;51.518;-3.188;2022-08-21T07:46:43;101187.23;;;23.82;50.91
72134;BME280;60011;51.518;-3.188;2022-08-21T07:49:08;101185.57;;;23.82;51.09
72134;BME280;60011;51.518;-3.188;2022-08-21T07:51:33;101186.65;;;23.88;50.95
72134;BME280;60011;51.518;-3.188;2022-08-21T07:53:59;101188.43;;;23.90;51.08
72134;BME280;60011;51.518;-3.188;2022-08-21T07:56:23;101186.10;;;23.93;51.05
72134;BME280;60011;51.518;-3.188;2022-08-21T07:58:49;101187.88;;;23.97;50.94
72134;BME280;60011;51.518;-3.188;2022-08-21T08:01:14;101191.73;;;23.97;50.94
72134;BME280;60011;51.518;-3.188;2022-08-21T08:03:40;101190.90;;;23.99;50.83
72134;BME280;60011;51.518;-3.188;2022-08-21T08:06:06;101187.45;;;24.01;50.87
72134;BME280;60011;51.518;-3.188;2022-08-21T08:08:31;101182.12;;;23.95;51.06
72134;BME280;60011;51.518;-3.188;2022-08-21T08:10:56;101176.28;;;23.96;51.08
72134;BME280;60011;51.518;-3.188;2022-08-21T08:13:21;101173.86;;;24.00;50.89
72134;BME280;60011;51.518;-3.188;2022-08-21T08:15:46;101172.23;;;23.99;50.92
72134;BME280;60011;51.518;-3.188;2022-08-21T08:18:11;101169.69;;;23.95;51.01
72134;BME280;60011;51.518;-3.188;2022-08-21T08:20:36;101165.24;;;23.94;50.99
72134;BME280;60011;51.518;-3.188;2022-08-21T08:23:02;101154.60;;;23.89;50.73
72134;BME280;60011;51.518;-3.188;2022-08-21T08:25:28;101149.83;;;23.89;50.60
72134;BME280;60011;51.518;-3.188;2022-08-21T08:27:53;101151.23;;;23.88;50.48
72134;BME280;60011;51.518;-3.188;2022-08-21T08:30:20;101154.01;;;23.86;50.47
72134;BME280;60011;51.518;-3.188;2022-08-21T08:32:45;101153.17;;;23.85;50.17
72134;BME280;60011;51.518;-3.188;2022-08-21T08:35:09;101149.31;;;23.87;50.14
72134;BME280;60011;51.518;-3.188;2022-08-21T08:37:35;101146.59;;;23.94;49.97
72134;BME280;60011;51.518;-3.188;2022-08-21T08:40:00;101153.96;;;23.92;49.80
72134;BME280;60011;51.518;-3.188;2022-08-21T08:42:28;101155.42;;;23.87;49.85
72134;BME280;60011;51.518;-3.188;2022-08-21T08:44:55;101158.54;;;23.92;49.66
72134;BME280;60011;51.518;-3.188;2022-08-21T08:47:17;101157.52;;;23.89;49.74
72134;BME280;60011;51.518;-3.188;2022-08-21T08:49:46;101152.37;;;23.89;49.70
72134;BME280;60011;51.518;-3.188;2022-08-21T08:52:11;101148.70;;;23.87;49.66
72134;BME280;60011;51.518;-3.188;2022-08-21T08:54:35;101153.53;;;23.90;49.72
72134;BME280;60011;51.518;-3.188;2022-08-21T08:56:59;101150.87;;;23.92;49.72
72134;BME280;60011;51.518;-3.188;2022-08-21T08:59:26;101150.82;;;23.91;49.70
72134;BME280;60011;51.518;-3.188;2022-08-21T09:01:48;101149.13;;;23.92;49.75
72134;BME280;60011;51.518;-3.188;2022-08-21T09:04:20;101150.67;;;23.91;49.71
72134;BME280;60011;51.518;-3.188;2022-08-21T09:06:49;101156.83;;;23.93;49.68
72134;BME280;60011;51.518;-3.188;2022-08-21T09:09:15;101165.83;;;23.94;49.57
72134;BME280;60011;51.518;-3.188;2022-08-21T09:11:34;101171.13;;;23.93;49.51
72134;BME280;60011;51.518;-3.188;2022-08-21T09:14:04;101169.95;;;23.96;49.40
72134;BME280;60011;51.518;-3.188;2022-08-21T09:16:25;101171.65;;;23.97;49.38
72134;BME280;60011;51.518;-3.188;2022-08-21T09:18:53;101172.79;;;23.99;49.39
72134;BME280;60011;51.518;-3.188;2022-08-21T09:21:17;101172.80;;;23.99;49.28
72134;BME280;60011;51.518;-3.188;2022-08-21T09:23:43;101172.88;;;23.97;49.29
72134;BME280;60011;51.518;-3.188;2022-08-21T09:26:05;101165.55;;;23.97;49.23
72134;BME280;60011;51.518;-3.188;2022-08-21T09:28:27;101160.62;;;23.99;49.17
72134;BME280;60011;51.518;-3.188;2022-08-21T09:30:55;101158.01;;;23.99;49.20
72134;BME280;60011;51.518;-3.188;2022-08-21T09:33:18;101156.33;;;24.01;48.97
72134;BME280;60011;51.518;-3.188;2022-08-21T09:35:51;101153.50;;;24.02;48.99
72134;BME280;60011;51.518;-3.188;2022-08-21T09:38:08;101151.75;;;24.06;48.75
72134;BME280;60011;51.518;-3.188;2022-08-21T09:40:38;101154.14;;;24.11;48.59
72134;BME280;60011;51.518;-3.188;2022-08-21T09:43:01;101155.19;;;24.08;48.64
72134;BME280;60011;51.518;-3.188;2022-08-21T09:45:24;101153.96;;;24.12;48.63
72134;BME280;60011;51.518;-3.188;2022-08-21T09:47:49;101163.04;;;24.06;48.71
72134;BME280;60011;51.518;-3.188;2022-08-21T09:50:16;101160.99;;;24.07;48.63
72134;BME280;60011;51.518;-3.188;2022-08-21T09:52:45;101160.03;;;24.10;48.52
72134;BME280;60011;51.518;-3.188;2022-08-21T09:55:05;101161.93;;;24.08;48.55
72134;BME280;60011;51.518;-3.188;2022-08-21T09:57:31;101161.03;;;24.11;48.32
72134;BME280;60011;51.518;-3.188;2022-08-21T09:59:56;101163.72;;;24.08;48.55
72134;BME280;60011;51.518;-3.188;2022-08-21T10:02:25;101165.50;;;24.10;48.39
72134;BME280;60011;51.518;-3.188;2022-08-21T10:04:51;101165.15;;;24.15;48.16
72134;BME280;60011;51.518;-3.188;2022-08-21T10:07:13;101163.77;;;24.27;47.95
72134;BME280;60011;51.518;-3.188;2022-08-21T10:09:37;101159.97;;;24.23;47.97
72134;BME280;60011;51.518;-3.188;2022-08-21T10:12:10;101159.61;;;24.27;47.93
72134;BME280;60011;51.518;-3.188;2022-08-21T10:14:40;101161.87;;;24.24;48.03
72134;BME280;60011;51.518;-3.188;2022-08-21T10:17:00;101162.53;;;24.18;48.09
72134;BME280;60011;51.518;-3.188;2022-08-21T10:19:24;101164.29;;;24.26;47.97
72134;BME280;60011;51.518;-3.188;2022-08-21T10:21:49;101163.59;;;24.25;48.08
72134;BME280;60011;51.518;-3.188;2022-08-21T10:24:14;101164.08;;;24.29;47.93
72134;BME280;60011;51.518;-3.188;2022-08-21T10:26:42;101158.79;;;24.24;47.96
72134;BME280;60011;51.518;-3.188;2022-08-21T10:29:03;101158.16;;;24.23;47.90
72134;BME280;60011;51.518;-3.188;2022-08-21T10:31:31;101160.12;;;24.31;47.73
72134;BME280;60011;51.518;-3.188;2022-08-21T10:33:55;101158.42;;;24.32;47.49
72134;BME280;60011;51.518;-3.188;2022-08-21T10:36:18;101158.83;;;24.31;47.38
72134;BME280;60011;51.518;-3.188;2022-08-21T10:38:52;101158.61;;;24.30;47.50
72134;BME280;60011;51.518;-3.188;2022-08-21T10:41:09;101161.28;;;24.34;47.36
72134;BME280;60011;51.518;-3.188;2022-08-21T10:43:37;101160.95;;;24.35;47.44
72134;BME280;60011;51.518;-3.188;2022-08-21T10:46:01;101163.00;;;24.31;47.42
72134;BME280;60011;51.518;-3.188;2022-08-21T10:48:27;101162.24;;;24.37;47.32
72134;BME280;60011;51.518;-3.188;2022-08-21T10:50:51;101167.10;;;24.39;47.14
72134;BME280;60011;51.518;-3.188;2022-08-21T10:53:25;101167.29;;;24.35;47.19
72134;BME280;60011;51.518;-3.188;2022-08-21T10:55:41;101172.34;;;24.36;47.23
72134;BME280;60011;51.518;-3.188;2022-08-21T10:58:08;101173.09;;;24.40;47.11
72134;BME280;60011;51.518;-3.188;2022-08-21T11:00:32;101174.66;;;24.43;47.11
72134;BME280;60011;51.518;-3.188;2022-08-21T11:02:57;101176.04;;;24.40;47.28
72134;BME280;60011;51.518;-3.188;2022-08-21T11:05:23;101175.80;;;24.44;47.21
72134;BME280;60011;51.518;-3.188;2022-08-21T11:07:48;101172.52;;;24.42;47.29
72134;BME280;60011;51.518;-3.188;2022-08-21T11:10:14;101171.92;;;24.45;47.28
72134;BME280;60011;51.518;-3.188;2022-08-21T11:12:40;101173.50;;;24.50;47.05
72134;BME280;60011;51.518;-3.188;2022-08-21T11:15:05;101165.95;;;24.48;47.29
72134;BME280;60011;51.518;-3.188;2022-08-21T11:17:30;101167.90;;;24.50;47.11
72134;BME280;60011;51.518;-3.188;2022-08-21T11:19:54;101167.78;;;24.52;47.08
72134;BME280;60011;51.518;-3.188;2022-08-21T11:22:21;101170.77;;;24.52;47.26
72134;BME280;60011;51.518;-3.188;2022-08-21T11:24:44;101169.47;;;24.55;47.13
72134;BME280;60011;51.518;-3.188;2022-08-21T11:27:12;101170.81;;;24.53;47.18
72134;BME280;60011;51.518;-3.188;2022-08-21T11:29:34;101165.10;;;24.51;47.38
72134;BME280;60011;51.518;-3.188;2022-08-21T11:32:05;101162.89;;;24.56;47.22
72134;BME280;60011;51.518;-3.188;2022-08-21T11:34:30;101158.50;;;24.59;47.16
72134;BME280;60011;51.518;-3.188;2022-08-21T11:36:53;101153.93;;;24.60;47.07
72134;BME280;60011;51.518;-3.188;2022-08-21T11:39:24;101156.45;;;24.60;47.13
72134;BME280;60011;51.518;-3.188;2022-08-21T11:41:40;101157.11;;;24.61;47.05
72134;BME280;60011;51.518;-3.188;2022-08-21T11:44:10;101154.36;;;24.66;47.03
72134;BME280;60011;51.518;-3.188;2022-08-21T11:46:37;101158.45;;;24.67;46.99
72134;BME280;60011;51.518;-3.188;2022-08-21T11:49:00;101156.19;;;24.68;46.95
72134;BME280;60011;51.518;-3.188;2022-08-21T11:51:21;101158.29;;;24.71;46.87
72134;BME280;60011;51.518;-3.188;2022-08-21T11:53:48;101156.36;;;24.67;47.04
72134;BME280;60011;51.518;-3.188;2022-08-21T11:56:13;101162.22;;;24.65;47.00
72134;BME280;60011;51.518;-3.188;2022-08-21T11:58:38;101162.52;;;24.65;46.99
72134;BME280;60011;51.518;-3.188;2022-08-21T12:01:03;101168.20;;;24.65;47.02
72134;BME280;60011;51.518;-3.188;2022-08-21T12:03:28;101168.27;;;24.59;46.93
72134;BME280;60011;51.518;-3.188;2022-08-21T12:05:53;101169.77;;;24.60;46.85
72134;BME280;60011;51.518;-3.188;2022-08-21T12:10:47;101170.30;;;24.60;46.83
72134;BME280;60011;51.518;-3.188;2022-08-21T12:13:09;101165.28;;;24.59;46.86
72134;BME280;60011;51.518;-3.188;2022-08-21T12:15:31;101166.06;;;24.62;46.85
72134;BME280;60011;51.518;-3.188;2022-08-21T12:17:59;101158.43;;;24.69;46.74
72134;BME280;60011;51.518;-3.188;2022-08-21T12:22:52;101155.03;;;24.78;46.67
72134;BME280;60011;51.518;-3.188;2022-08-21T12:25:17;101153.70;;;24.83;46.48
72134;BME280;60011;51.518;-3.188;2022-08-21T12:27:44;101152.76;;;24.87;46.47
72134;BME280;60011;51.518;-3.188;2022-08-21T12:30:05;101153.27;;;24.88;46.43
72134;BME280;60011;51.518;-3.188;2022-08-21T12:32:29;101150.51;;;24.80;46.56
72134;BME280;60011;51.518;-3.188;2022-08-21T12:34:57;101150.79;;;24.97;46.32